Time;durP1;ratioP1;P1;durP2;ratioP2;P2;SDS_P1;SDS_P2;PMS_P1;PMS_P2;Temp;Humidity;BMP_temperature;BMP_pressure;BME280_temperature;BME280_humidity;BME280_pressure;Samples;Min_cycle;Max_cycle;Signal;HPM_P1;HPM_P2
2023/07/04 00:04:56;;;;;;;4.65;0.70;;;;;;;17.46;44.89;97534.59;10514628;28;20470;-74
2023/07/04 00:10:17;;;;;;;3.60;1.00;;;;;;;17.38;44.85;97526.59;10514467;28;20137;-75
2023/07/04 00:15:43;;;;;;;4.30;1.00;;;;;;;17.31;45.15;97518.53;10543483;28;20579;-75
2023/07/04 00:21:05;;;;;;;2.97;0.88;;;;;;;17.24;45.49;97514.75;10500503;28;20064;-75
2023/07/04 00:26:26;;;;;;;2.25;0.90;;;;;;;17.20;45.53;97511.78;10500120;28;20418;-75
2023/07/04 00:31:46;;;;;;;3.08;0.85;;;;;;;17.24;45.62;97520.41;10485974;28;20557;-74
2023/07/04 00:37:08;;;;;;;4.88;0.95;;;;;;;17.30;45.86;97529.09;10527258;28;20111;-74
2023/07/04 00:42:29;;;;;;;5.35;1.20;;;;;;;17.36;45.92;97526.50;10512582;28;20064;-73
2023/07/04 00:47:57;;;;;;;3.42;0.60;;;;;;;17.46;45.68;97521.22;10512868;28;20044;-73
2023/07/04 00:53:17;;;;;;;5.30;0.90;;;;;;;17.64;45.63;97520.44;10513513;28;20134;-74
2023/07/04 00:58:39;;;;;;;3.55;0.90;;;;;;;17.69;45.86;97522.06;10512743;28;20067;-75
2023/07/04 01:04:03;;;;;;;2.78;0.77;;;;;;;17.72;45.85;97520.78;10526088;28;20106;-75
2023/07/04 01:09:24;;;;;;;2.55;0.80;;;;;;;17.69;45.89;97516.41;10513282;28;20067;-75
2023/07/04 01:14:47;;;;;;;2.28;0.70;;;;;;;17.59;45.92;97519.59;10498142;28;20461;-75
2023/07/04 01:20:10;;;;;;;4.30;0.65;;;;;;;17.41;46.07;97521.72;10512671;28;20064;-75
2023/07/04 01:25:50;;;;;;;2.80;0.80;;;;;;;17.26;46.50;97517.66;10511955;28;20434;-74
2023/07/04 01:31:11;;;;;;;4.03;0.68;;;;;;;17.20;46.56;97520.25;10498779;28;20154;-74
2023/07/04 01:36:33;;;;;;;2.53;0.82;;;;;;;17.21;46.67;97527.34;10497543;28;20071;-75
2023/07/04 01:41:54;;;;;;;3.45;0.70;;;;;;;17.21;46.97;97527.34;10511369;28;20054;-74
2023/07/04 01:47:14;;;;;;;2.88;0.63;;;;;;;17.13;46.99;97527.03;10511102;28;20044;-75
2023/07/04 01:52:35;;;;;;;2.47;0.80;;;;;;;16.96;47.19;97524.94;10497076;28;20067;-74
2023/07/04 01:57:57;;;;;;;3.08;0.77;;;;;;;16.85;47.45;97527.38;10510792;28;20501;-74
2023/07/04 02:03:19;;;;;;;2.67;0.95;;;;;;;16.72;47.70;97524.72;10524733;28;20169;-74
2023/07/04 02:08:40;;;;;;;2.17;0.60;;;;;;;16.59;47.90;97523.47;10524764;28;20082;-74
2023/07/04 02:14:01;;;;;;;3.70;0.90;;;;;;;16.54;48.03;97521.84;10510357;28;20044;-74
2023/07/04 02:19:22;;;;;;;2.53;0.90;;;;;;;16.45;48.33;97520.81;10510424;28;20059;-74
2023/07/04 02:24:42;;;;;;;4.50;0.77;;;;;;;16.38;48.69;97526.81;10524454;28;20470;-74
2023/07/04 02:30:04;;;;;;;3.92;0.98;;;;;;;16.30;48.95;97522.28;10510233;28;20133;-74
2023/07/04 02:35:25;;;;;;;1.58;0.65;;;;;;;16.25;49.06;97526.31;10523961;28;20051;-74
2023/07/04 02:40:47;;;;;;;4.28;1.15;;;;;;;16.23;49.21;97534.69;10482677;28;20040;-74
2023/07/04 02:46:08;;;;;;;3.53;0.70;;;;;;;16.18;49.45;97527.44;10496294;28;20513;-74
2023/07/04 02:51:33;;;;;;;2.80;1.02;;;;;;;16.14;50.19;97543.44;10510527;28;20060;-74
2023/07/04 02:56:55;;;;;;;3.05;0.85;;;;;;;16.06;49.95;97535.38;10524426;28;20068;-75
2023/07/04 03:02:17;;;;;;;2.72;1.02;;;;;;;16.03;50.09;97539.47;10531523;28;20063;-76
2023/07/04 03:07:39;;;;;;;2.58;0.90;;;;;;;16.03;50.18;97537.38;10514550;28;20044;-74
2023/07/04 03:13:02;;;;;;;6.57;0.85;;;;;;;15.94;50.41;97544.03;10517153;28;20473;-74
2023/07/04 03:18:27;;;;;;;3.33;0.90;;;;;;;15.89;50.73;97550.09;10504110;28;20393;-74
2023/07/04 03:23:49;;;;;;;6.45;1.17;;;;;;;15.90;50.92;97554.38;10502620;28;20056;-74
2023/07/04 03:29:10;;;;;;;2.72;0.82;;;;;;;15.99;51.14;97550.53;10530616;28;20075;-74
2023/07/04 03:34:31;;;;;;;3.40;0.82;;;;;;;16.09;51.09;97548.16;10502177;28;20082;-74
2023/07/04 03:39:52;;;;;;;4.97;0.85;;;;;;;16.13;51.25;97559.59;10529903;28;20493;-74
2023/07/04 03:45:13;;;;;;;2.25;0.90;;;;;;;16.15;51.33;97556.88;10515773;28;20572;-75
2023/07/04 03:50:33;;;;;;;2.72;1.15;;;;;;;16.25;51.56;97559.41;10501402;28;20068;-74
2023/07/04 03:55:54;;;;;;;3.67;1.00;;;;;;;16.45;51.34;97576.41;10515359;28;20493;-74
2023/07/04 04:01:15;;;;;;;4.10;1.13;;;;;;;16.48;50.90;97575.13;10514766;28;20123;-74
2023/07/04 04:06:36;;;;;;;5.40;0.90;;;;;;;16.53;51.31;97577.47;10528871;28;20127;-74
2023/07/04 04:11:56;;;;;;;2.95;0.85;;;;;;;16.70;51.36;97576.09;10514477;28;20072;-74
2023/07/04 04:17:18;;;;;;;2.13;0.60;;;;;;;16.91;51.42;97563.53;10542412;28;20078;-74
2023/07/04 04:22:43;;;;;;;6.45;0.90;;;;;;;17.16;51.11;97582.13;10500439;28;20063;-74
2023/07/04 04:28:05;;;;;;;4.28;1.02;;;;;;;17.28;51.05;97593.91;10528614;28;20154;-74
2023/07/04 04:33:25;;;;;;;4.57;0.90;;;;;;;17.44;50.90;97576.84;10513690;28;20048;-74
2023/07/04 04:38:46;;;;;;;4.15;0.90;;;;;;;17.65;50.91;97586.81;10527471;28;20121;-74
2023/07/04 04:44:07;;;;;;;3.38;0.85;;;;;;;17.93;50.70;97584.34;10527134;28;20067;-75
2023/07/04 04:49:27;;;;;;;3.42;0.85;;;;;;;18.22;50.17;97592.44;10498841;28;20082;-74
2023/07/04 04:54:48;;;;;;;6.18;1.00;;;;;;;18.45;49.67;97590.41;10541980;28;20459;-74
2023/07/04 05:00:10;;;;;;;3.17;1.00;;;;;;;18.64;49.83;97597.41;10512452;28;20071;-75
2023/07/04 05:05:31;;;;;;;2.28;0.90;;;;;;;19.04;49.62;97607.25;10512046;28;20127;-75
2023/07/04 05:11:04;;;;;;;3.15;1.10;;;;;;;19.33;48.84;97611.69;10512328;28;20144;-74
2023/07/04 05:16:25;;;;;;;4.32;0.90;;;;;;;19.37;48.57;97616.75;10527088;28;20067;-74
2023/07/04 05:21:48;;;;;;;2.40;0.82;;;;;;;19.62;48.34;97613.31;10540997;28;20136;-74
2023/07/04 05:27:08;;;;;;;2.85;1.00;;;;;;;19.94;48.40;97619.19;10512328;28;20059;-74
2023/07/04 05:32:30;;;;;;;2.75;0.98;;;;;;;20.21;48.36;97609.31;10525289;28;20067;-74
2023/07/04 05:37:50;;;;;;;3.03;1.08;;;;;;;20.79;48.52;97615.13;10540571;28;20083;-74
2023/07/04 05:43:11;;;;;;;4.57;0.82;;;;;;;21.26;48.16;97619.13;10540029;28;20119;-74
2023/07/04 05:48:33;;;;;;;2.97;0.80;;;;;;;21.48;47.14;97623.88;10511399;28;20044;-74
2023/07/04 05:53:54;;;;;;;1.70;0.70;;;;;;;21.97;46.71;97625.66;10510881;28;20588;-74
2023/07/04 05:59:15;;;;;;;2.72;1.00;;;;;;;21.87;45.93;97617.66;10510714;28;20132;-74
2023/07/04 06:04:36;;;;;;;2.58;0.88;;;;;;;21.88;46.13;97633.28;10510648;28;20076;-74
2023/07/04 06:09:57;;;;;;;3.10;1.15;;;;;;;22.45;45.86;97628.06;10510940;28;20075;-74
2023/07/04 06:15:18;;;;;;;2.65;0.98;;;;;;;23.05;44.75;97625.59;10539594;28;20052;-74
2023/07/04 06:20:39;;;;;;;3.60;0.70;;;;;;;23.61;43.49;97619.34;10524321;28;20516;-74
2023/07/04 06:25:59;;;;;;;3.05;1.10;;;;;;;23.47;42.93;97619.13;10539429;28;20064;-74
2023/07/04 06:31:20;;;;;;;4.03;0.80;;;;;;;24.10;42.45;97620.00;10510155;28;20071;-74
2023/07/04 06:36:48;;;;;;;4.03;0.98;;;;;;;24.88;41.27;97630.13;10524133;28;20064;-74
2023/07/04 06:42:08;;;;;;;3.75;0.70;;;;;;;24.99;40.52;97620.22;10528738;28;20054;-74
2023/07/04 06:47:35;;;;;;;2.67;1.30;;;;;;;25.48;39.67;97634.94;10506225;28;20043;-75
2023/07/04 06:52:55;;;;;;;3.85;1.02;;;;;;;26.14;38.80;97627.44;10546826;28;20040;-74
2023/07/04 06:58:16;;;;;;;4.45;1.60;;;;;;;26.88;37.92;97631.97;10531344;28;20051;-74
2023/07/04 07:03:37;;;;;;;3.03;1.10;;;;;;;26.99;36.72;97636.28;10530984;28;20097;-75
2023/07/04 07:08:59;;;;;;;4.33;1.70;;;;;;;27.23;36.10;97638.47;10517080;28;20401;-75
2023/07/04 07:14:19;;;;;;;5.15;2.00;;;;;;;28.22;34.96;97631.13;10530717;28;20075;-74
2023/07/04 07:19:40;;;;;;;4.68;2.72;;;;;;;29.06;33.19;97642.88;10530890;28;20389;-75
2023/07/04 07:25:01;;;;;;;5.63;2.58;;;;;;;29.50;32.64;97650.44;10530189;28;20036;-74
2023/07/04 07:30:22;;;;;;;4.65;2.97;;;;;;;29.74;31.17;97649.50;10516057;28;20457;-74
2023/07/04 07:35:42;;;;;;;6.40;3.35;;;;;;;30.41;30.63;97633.66;10515785;28;20059;-75
2023/07/04 07:41:04;;;;;;;6.15;3.70;;;;;;;30.27;29.80;97630.94;10544800;28;20036;-74
2023/07/04 07:46:26;;;;;;;5.35;3.60;;;;;;;31.40;29.31;97628.59;10501763;28;20095;-75
2023/07/04 07:51:48;;;;;;;6.22;4.22;;;;;;;31.91;27.45;97633.47;10529446;28;20039;-74
2023/07/04 07:57:09;;;;;;;5.45;4.22;;;;;;;32.20;26.51;97636.50;10529215;28;20044;-75
2023/07/04 08:02:31;;;;;;;12.73;5.40;;;;;;;32.01;25.85;97636.16;10544205;28;20052;-74
2023/07/04 08:07:52;;;;;;;6.93;5.38;;;;;;;32.11;25.78;97629.47;10515036;28;20040;-75
2023/07/04 08:13:14;;;;;;;;;;;;;;;32.75;24.79;97638.94;10529025;28;20051;-74
2023/07/04 08:18:35;;;;;;;8.23;5.07;;;;;;;32.22;25.37;97629.97;10528543;28;19919;-74
2023/07/04 08:23:56;;;;;;;9.20;5.57;;;;;;;32.69;25.30;97633.31;10527962;28;20040;-74
2023/07/04 08:29:17;;;;;;;7.27;5.57;;;;;;;32.24;24.75;97639.31;10527753;28;20040;-75
2023/07/04 08:34:38;;;;;;;9.07;6.35;;;;;;;32.82;24.84;97630.16;10527518;28;20092;-75
2023/07/04 08:39:59;;;;;;;8.80;6.70;;;;;;;33.57;23.67;97646.41;10542708;28;20096;-74
2023/07/04 08:45:26;;;;;;;10.55;7.05;;;;;;;33.56;23.62;97632.72;10513530;28;20047;-75
2023/07/04 08:50:47;;;;;;;10.55;6.60;;;;;;;32.70;23.79;97634.00;10513400;28;20169;-74
2023/07/04 08:56:16;;;;;;;9.32;6.70;;;;;;;33.47;22.73;97628.59;10512945;28;20044;-73
2023/07/04 09:02:06;;;;;;;11.20;7.25;;;;;;;32.94;23.12;97638.56;10512606;28;20087;-73
2023/07/04 09:07:39;;;;;;;10.93;8.18;;;;;;;32.60;23.60;97651.56;10526497;28;20032;-73
2023/07/04 09:13:01;;;;;;;8.50;7.20;;;;;;;32.44;23.27;97644.00;10512721;28;20137;-73
2023/07/04 09:18:43;;;;;;;9.98;7.78;;;;;;;32.29;24.11;97645.72;10512196;28;20054;-73
2023/07/04 09:24:05;;;;;;;9.60;8.15;;;;;;;32.99;23.54;97634.09;10540595;28;20508;-74
2023/07/04 09:29:26;;;;;;;12.30;8.60;;;;;;;32.70;23.29;97628.94;10511886;28;20434;-74
2023/07/04 09:34:50;;;;;;;12.10;8.45;;;;;;;31.74;23.80;97633.03;10525153;28;20536;-73
2023/07/04 09:40:12;;;;;;;12.43;9.68;;;;;;;31.88;23.96;97629.91;10525617;28;20040;-73
2023/07/04 09:45:33;;;;;;;14.30;9.20;;;;;;;31.70;23.95;97620.84;10511281;28;20040;-73
2023/07/04 09:50:54;;;;;;;11.43;8.55;;;;;;;31.71;24.20;97625.88;10511170;28;20070;-73
2023/07/04 09:56:26;;;;;;;11.48;8.80;;;;;;;32.32;24.00;97624.00;10524885;28;20504;-74
2023/07/04 10:01:49;;;;;;;17.65;11.63;;;;;;;33.36;22.75;97621.66;10510732;28;20052;-74
2023/07/04 10:07:13;;;;;;;15.85;10.60;;;;;;;33.79;22.17;97607.50;10524820;28;20040;-74
2023/07/04 10:12:43;;;;;;;13.88;10.95;;;;;;;33.49;21.76;97626.41;10539568;28;20047;-74
2023/07/04 10:18:05;;;;;;;19.70;12.57;;;;;;;32.58;22.05;97629.22;10530655;28;20043;-74
2023/07/04 10:23:29;;;;;;;16.58;13.57;;;;;;;31.74;22.85;97615.00;10519138;28;20124;-74
2023/07/04 10:28:52;;;;;;;20.48;13.35;;;;;;;32.34;22.87;97623.97;10547831;28;20036;-74
2023/07/04 10:34:15;;;;;;;16.15;13.05;;;;;;;31.85;22.50;97617.00;10519046;28;20528;-73
2023/07/04 10:39:38;;;;;;;16.10;13.48;;;;;;;31.65;22.74;97616.63;10518265;28;20043;-74
2023/07/04 10:44:58;;;;;;;19.00;13.90;;;;;;;31.51;22.96;97612.53;10518431;28;20393;-74
2023/07/04 10:50:22;;;;;;;17.83;13.57;;;;;;;30.20;23.12;97604.38;10504111;28;20500;-74
2023/07/04 10:55:46;;;;;;;19.67;14.52;;;;;;;29.67;23.95;97602.13;10503743;28;20278;-74
2023/07/04 11:01:26;;;;;;;18.70;14.82;;;;;;;29.19;25.04;97601.09;10546268;28;20085;-74
2023/07/04 11:06:59;;;;;;;19.27;13.80;;;;;;;30.77;24.72;97609.41;10518677;28;20393;-74
2023/07/04 11:12:23;;;;;;;17.30;13.63;;;;;;;30.49;23.84;97602.56;10517234;28;20120;-74
2023/07/04 11:17:44;;;;;;;19.60;13.70;;;;;;;29.92;24.39;97603.28;10517186;28;20055;-74
2023/07/04 11:23:51;;;;;;;19.27;14.80;;;;;;;30.03;24.42;97597.41;10502694;28;20040;-74
2023/07/04 11:29:16;;;;;;;18.17;13.57;;;;;;;30.76;24.30;97594.28;10504089;28;20047;-74
2023/07/04 11:34:51;;;;;;;18.83;16.02;;;;;;;32.11;22.69;97594.81;10502505;28;20044;-73
2023/07/04 11:40:40;;;;;;;21.52;17.20;;;;;;;32.04;21.88;97593.53;10530043;28;20043;-74
2023/07/04 11:46:02;;;;;;;21.98;16.90;;;;;;;32.03;21.22;97584.16;10515309;28;20044;-74
2023/07/04 11:51:24;;;;;;;24.08;17.40;;;;;;;31.98;21.54;97585.72;10529696;28;20115;-74
2023/07/04 11:56:46;;;;;;;27.27;20.98;;;;;;;32.41;20.06;97584.81;10529500;28;20119;-73
2023/07/04 12:02:12;;;;;;;24.95;18.38;;;;;;;32.68;19.81;97585.66;10543817;28;20123;-73
2023/07/04 12:07:44;;;;;;;27.02;20.52;;;;;;;31.68;19.85;97586.28;10528841;28;20043;-74
2023/07/04 12:13:07;;;;;;;26.15;20.58;;;;;;;31.24;20.51;97576.97;10528443;28;20055;-73
2023/07/04 12:18:28;;;;;;;26.83;21.05;;;;;;;30.79;20.24;97580.59;10528503;28;20410;-74
2023/07/04 12:23:49;;;;;;;26.02;21.05;;;;;;;30.01;20.46;97568.63;10514148;28;20052;-74
2023/07/04 12:29:10;;;;;;;28.20;21.00;;;;;;;29.99;21.15;97571.53;10499807;28;20486;-74
2023/07/04 12:34:35;;;;;;;26.35;20.73;;;;;;;30.88;20.47;97564.56;10528268;28;20047;-73
2023/07/04 12:40:04;;;;;;;27.48;21.65;;;;;;;30.77;20.17;97566.19;10541517;28;20067;-74
2023/07/04 12:45:26;;;;;;;25.48;19.85;;;;;;;30.10;20.81;97561.34;10513994;28;20389;-74
2023/07/04 12:50:49;;;;;;;24.23;18.38;;;;;;;30.67;21.03;97555.53;10499156;28;20397;-74
2023/07/04 12:56:11;;;;;;;21.25;16.98;;;;;;;31.05;20.55;97548.44;10526993;28;20079;-74
2023/07/04 13:01:33;;;;;;;22.63;18.13;;;;;;;31.02;19.92;97549.94;10513051;28;20056;-74
2023/07/04 13:06:56;;;;;;;22.58;17.23;;;;;;;30.80;20.29;97546.72;10526157;28;20040;-74
2023/07/04 13:12:22;;;;;;;20.98;17.60;;;;;;;30.64;20.59;97539.75;10496303;28;20105;-74
2023/07/04 13:18:00;;;;;;;25.70;17.25;;;;;;;30.63;20.45;97552.00;10526216;28;20100;-74
2023/07/04 13:23:23;;;;;;;19.42;16.55;;;;;;;30.77;20.61;97552.50;10512772;28;20040;-74
2023/07/04 13:28:49;;;;;;;23.23;16.98;;;;;;;30.80;20.82;97549.59;10540660;28;20032;-74
2023/07/04 13:34:22;;;;;;;24.77;18.15;;;;;;;30.09;20.72;97546.25;10526164;28;20133;-74
2023/07/04 13:39:43;;;;;;;23.42;17.63;;;;;;;29.93;21.27;97547.16;10525514;28;20040;-74
2023/07/04 13:45:10;;;;;;;25.27;18.27;;;;;;;30.18;20.81;97552.63;10525663;28;20044;-74
2023/07/04 13:50:34;;;;;;;24.15;16.95;;;;;;;30.04;21.04;97539.13;10511672;28;20050;-74
2023/07/04 13:55:57;;;;;;;22.23;16.55;;;;;;;30.52;20.91;97544.97;10511378;28;20044;-75
2023/07/04 14:01:17;;;;;;;;;;;;;;;30.88;20.09;97547.28;10525058;28;20051;-74
2023/07/04 14:06:41;;;;;;;21.67;17.65;;;;;;;30.81;19.71;97540.22;10539569;28;20005;-74
2023/07/04 14:12:04;;;;;;;21.80;16.85;;;;;;;30.88;19.44;97538.63;10539604;28;20094;-74
2023/07/04 14:17:26;;;;;;;22.42;17.42;;;;;;;30.46;19.17;97528.47;10510491;28;20447;-74
2023/07/04 14:22:55;;;;;;;20.85;16.98;;;;;;;29.82;20.05;97537.25;10525677;28;20401;-74
2023/07/04 14:28:16;;;;;;;21.73;17.02;;;;;;;29.08;20.46;97525.78;10524133;28;20051;-74
2023/07/04 14:33:38;;;;;;;22.00;16.50;;;;;;;28.62;21.13;97523.25;10510553;28;20040;-74
2023/07/04 14:39:00;;;;;;;;;;;;;;;28.16;21.56;97522.81;10510375;28;20052;-74
2023/07/04 14:44:22;;;;;;;24.23;16.40;;;;;;;28.29;21.67;97531.41;10539080;28;20389;-74
2023/07/04 14:49:45;;;;;;;20.98;16.05;;;;;;;28.92;21.71;97525.19;10524598;28;20470;-74
2023/07/04 14:55:09;;;;;;;19.67;13.93;;;;;;;29.30;21.51;97513.34;10509967;28;20043;-74
2023/07/04 15:00:38;;;;;;;18.45;13.68;;;;;;;29.75;20.97;97527.25;10510703;28;20055;-74
2023/07/04 15:06:04;;;;;;;18.13;13.30;;;;;;;29.64;20.87;97517.31;10531436;28;20047;-74
2023/07/04 15:11:25;;;;;;;17.25;12.55;;;;;;;29.22;21.07;97522.03;10503599;28;20036;-74
2023/07/04 15:16:46;;;;;;;18.73;12.98;;;;;;;28.82;21.54;97522.38;10516733;28;20474;-74
2023/07/04 15:22:07;;;;;;;19.15;13.73;;;;;;;28.52;21.83;97526.94;10530479;28;20040;-74
2023/07/04 15:27:27;;;;;;;20.40;14.07;;;;;;;28.35;21.97;97519.84;10502323;28;20040;-74
2023/07/04 15:32:48;;;;;;;20.10;13.75;;;;;;;28.09;22.20;97527.19;10516063;28;20055;-74
2023/07/04 15:38:09;;;;;;;17.30;12.65;;;;;;;27.78;22.56;97515.09;10516141;28;20051;-74
2023/07/04 15:43:32;;;;;;;18.30;12.50;;;;;;;27.61;22.83;97514.44;10515927;28;20051;-74
2023/07/04 15:48:53;;;;;;;17.15;12.48;;;;;;;27.59;22.95;97505.84;10529720;28;20047;-74
2023/07/04 15:54:14;;;;;;;17.17;12.43;;;;;;;27.57;23.65;97511.59;10515288;28;20048;-73
2023/07/04 15:59:35;;;;;;;16.70;12.48;;;;;;;27.59;23.59;97505.13;10515034;28;20494;-73
2023/07/04 16:04:56;;;;;;;15.70;12.95;;;;;;;27.49;23.36;97503.00;10528950;28;20052;-73
2023/07/04 16:10:17;;;;;;;14.93;11.05;;;;;;;27.26;23.85;97513.13;10528805;28;20036;-73
2023/07/04 16:15:38;;;;;;;18.55;11.15;;;;;;;26.99;23.79;97503.81;10528510;28;20047;-73
2023/07/04 16:20:59;;;;;;;17.50;11.00;;;;;;;26.97;24.20;97501.69;10514423;28;20064;-73
2023/07/04 16:26:19;;;;;;;15.43;10.55;;;;;;;27.04;24.17;97508.16;10514197;28;20040;-73
2023/07/04 16:31:40;;;;;;;17.45;10.57;;;;;;;27.05;24.06;97495.25;10527795;28;20047;-73
2023/07/04 16:37:02;;;;;;;15.23;10.68;;;;;;;27.03;24.25;97495.97;10513750;28;20485;-73
2023/07/04 16:42:22;;;;;;;13.73;9.68;;;;;;;27.01;24.62;97495.22;10527577;28;20473;-73
2023/07/04 16:47:43;;;;;;;14.90;9.38;;;;;;;26.85;24.48;97498.84;10499287;28;20061;-73
2023/07/04 16:53:05;;;;;;;14.23;8.70;;;;;;;26.74;24.85;97503.13;10499098;28;20040;-73
2023/07/04 16:58:26;;;;;;;12.48;8.38;;;;;;;26.61;24.70;97493.09;10512879;28;20052;-73
2023/07/04 17:03:48;;;;;;;13.20;8.23;;;;;;;26.72;24.71;97503.81;10513116;28;20059;-73
2023/07/04 17:09:09;;;;;;;14.93;8.48;;;;;;;26.77;24.95;97498.84;10541413;28;20111;-73
2023/07/04 17:14:33;;;;;;;11.13;8.25;;;;;;;26.76;25.06;97506.72;10526640;28;20482;-73
2023/07/04 17:19:55;;;;;;;13.40;8.35;;;;;;;26.71;24.71;97507.41;10512668;28;20064;-73
2023/07/04 17:25:17;;;;;;;12.35;8.07;;;;;;;26.59;24.90;97508.13;10525496;28;20043;-73
2023/07/04 17:30:39;;;;;;;13.07;8.30;;;;;;;26.36;25.36;97513.09;10512343;28;20051;-73
2023/07/04 17:36:02;;;;;;;12.75;8.45;;;;;;;26.13;25.64;97514.47;10525582;28;20044;-73
2023/07/04 17:41:24;;;;;;;14.45;9.50;;;;;;;25.92;25.49;97522.28;10511626;28;20036;-73
2023/07/04 17:46:45;;;;;;;12.77;9.00;;;;;;;25.78;25.62;97517.22;10511184;28;20512;-74
2023/07/04 17:52:09;;;;;;;15.70;9.68;;;;;;;25.49;26.22;97529.94;10511098;28;20047;-74
2023/07/04 17:57:30;;;;;;;11.73;8.23;;;;;;;25.41;26.58;97524.88;10511202;28;20501;-74
2023/07/04 18:02:55;;;;;;;13.98;9.32;;;;;;;25.43;26.88;97532.75;10510960;28;20068;-74
2023/07/04 18:08:17;;;;;;;13.30;9.32;;;;;;;25.33;26.65;97539.84;10524623;28;20036;-75
2023/07/04 18:13:38;;;;;;;13.07;9.02;;;;;;;25.14;26.84;97554.72;10539642;28;20067;-74
2023/07/04 18:19:00;;;;;;;13.82;9.02;;;;;;;24.88;27.39;97552.34;10511052;28;20044;-75
2023/07/04 18:24:22;;;;;;;14.80;8.95;;;;;;;24.59;27.68;97546.38;10510657;28;20036;-74
2023/07/04 18:29:43;;;;;;;15.73;8.80;;;;;;;24.36;28.27;97554.03;10510939;28;20070;-75
2023/07/04 18:35:04;;;;;;;13.82;9.48;;;;;;;24.12;28.12;97557.28;10539448;28;20044;-75
2023/07/04 18:40:25;;;;;;;13.32;8.45;;;;;;;23.89;28.64;97561.31;10517735;28;20048;-75
2023/07/04 18:45:49;;;;;;;15.02;8.57;;;;;;;23.59;29.09;97555.94;10532398;28;20063;-75
2023/07/04 18:51:11;;;;;;;13.15;9.13;;;;;;;23.38;29.46;97563.47;10504724;28;20048;-75
2023/07/04 18:56:40;;;;;;;12.55;8.55;;;;;;;23.09;30.01;97570.88;10517875;28;20068;-75
2023/07/04 19:02:01;;;;;;;15.07;9.20;;;;;;;22.82;30.46;97576.09;10504732;28;20059;-75
2023/07/04 19:07:22;;;;;;;13.40;9.23;;;;;;;22.55;31.16;97580.63;10531157;28;20067;-75
2023/07/04 19:12:42;;;;;;;16.65;9.38;;;;;;;22.33;31.77;97585.19;10517312;28;20048;-75
2023/07/04 19:18:03;;;;;;;13.35;8.48;;;;;;;22.14;32.13;97601.88;10530848;28;20064;-76
2023/07/04 19:23:25;;;;;;;12.82;8.73;;;;;;;21.99;32.52;97605.81;10545927;28;20494;-75
2023/07/04 19:28:45;;;;;;;11.85;8.20;;;;;;;21.86;32.70;97599.16;10516650;28;20426;-75
2023/07/04 19:34:06;;;;;;;14.00;8.75;;;;;;;21.72;33.00;97607.38;10530257;28;20455;-75
2023/07/04 19:39:30;;;;;;;13.38;8.75;;;;;;;21.62;33.33;97613.56;10530303;28;20078;-74
2023/07/04 19:44:51;;;;;;;14.80;9.13;;;;;;;21.53;33.68;97616.91;10502684;28;20119;-75
2023/07/04 19:50:11;;;;;;;14.15;8.90;;;;;;;21.46;33.99;97618.16;10544588;28;20451;-74
2023/07/04 19:55:34;;;;;;;12.55;8.65;;;;;;;21.27;34.07;97617.75;10529392;28;20063;-75
2023/07/04 20:00:55;;;;;;;13.77;9.18;;;;;;;21.18;34.49;97626.72;10515329;28;20476;-72
2023/07/04 20:06:16;;;;;;;11.55;7.65;;;;;;;21.14;34.60;97627.34;10514807;28;20161;-73
2023/07/04 20:11:38;;;;;;;12.20;8.27;;;;;;;21.11;34.72;97623.72;10514794;28;20048;-72
2023/07/04 20:16:59;;;;;;;17.98;8.95;;;;;;;21.04;35.11;97621.41;10515101;28;20078;-73
2023/07/04 20:22:19;;;;;;;13.40;8.02;;;;;;;21.01;35.27;97611.41;10528351;28;20549;-73
2023/07/04 20:27:40;;;;;;;12.80;7.43;;;;;;;21.02;35.08;97622.06;10514277;28;20115;-72
2023/07/04 20:33:01;;;;;;;12.25;8.18;;;;;;;20.99;35.18;97622.69;10513897;28;20492;-73
2023/07/04 20:38:22;;;;;;;12.15;7.95;;;;;;;20.97;35.19;97626.22;10528105;28;20048;-75
2023/07/04 20:43:43;;;;;;;14.38;8.20;;;;;;;20.90;35.23;97616.09;10513585;28;20043;-75
2023/07/04 20:49:03;;;;;;;11.80;8.40;;;;;;;20.79;35.62;97615.13;10527380;28;20085;-75
2023/07/04 20:54:25;;;;;;;11.82;7.38;;;;;;;20.69;35.56;97612.03;10499441;28;20075;-75
2023/07/04 20:59:46;;;;;;;10.75;7.50;;;;;;;20.62;35.56;97615.38;10526292;28;20177;-76
2023/07/04 21:05:07;;;;;;;15.00;8.18;;;;;;;20.53;36.08;97609.50;10512791;28;20055;-75
2023/07/04 21:10:31;;;;;;;16.38;8.00;;;;;;;20.51;35.77;97620.06;10526421;28;20060;-75
2023/07/04 21:15:52;;;;;;;13.45;8.10;;;;;;;20.37;36.42;97625.34;10512851;28;20074;-75
2023/07/04 21:21:14;;;;;;;12.73;7.88;;;;;;;20.09;36.97;97614.66;10526083;28;20036;-75
2023/07/04 21:26:35;;;;;;;13.20;7.90;;;;;;;20.02;36.85;97624.38;10525908;28;20071;-75
2023/07/04 21:31:56;;;;;;;13.55;8.43;;;;;;;20.01;37.28;97622.91;10512067;28;20170;-75
2023/07/04 21:37:16;;;;;;;14.73;8.90;;;;;;;20.02;37.40;97621.53;10540746;28;20119;-75
2023/07/04 21:42:37;;;;;;;15.43;9.20;;;;;;;19.98;37.33;97624.97;10497576;28;20478;-75
2023/07/04 21:47:57;;;;;;;10.95;8.00;;;;;;;19.87;37.79;97631.00;10525148;28;20375;-75
2023/07/04 21:53:18;;;;;;;14.73;8.05;;;;;;;19.88;38.07;97623.94;10525335;28;20249;-75
2023/07/04 21:58:39;;;;;;;11.73;7.90;;;;;;;19.95;38.20;97636.91;10525146;28;20127;-75
2023/07/04 22:04:00;;;;;;;12.90;8.13;;;;;;;20.10;38.35;97638.75;10524997;28;20059;-75
2023/07/04 22:09:21;;;;;;;14.70;8.70;;;;;;;20.08;38.31;97646.50;10524955;28;20068;-73
2023/07/04 22:14:42;;;;;;;14.15;9.00;;;;;;;20.08;38.37;97635.88;10553856;28;20067;-75
2023/07/04 22:20:04;;;;;;;17.27;8.32;;;;;;;20.07;38.26;97637.25;10553640;28;20181;-75
2023/07/04 22:25:24;;;;;;;15.05;8.57;;;;;;;20.03;38.76;97637.13;10538532;28;20067;-75
2023/07/04 22:30:45;;;;;;;13.95;8.43;;;;;;;20.08;38.72;97635.88;10538467;28;20044;-75
2023/07/04 22:36:06;;;;;;;12.27;7.90;;;;;;;20.09;39.26;97637.31;10538066;28;20115;-73
2023/07/04 22:41:27;;;;;;;13.75;8.27;;;;;;;20.07;39.33;97631.56;10538049;28;20064;-75
2023/07/04 22:46:47;;;;;;;15.40;8.50;;;;;;;20.07;39.45;97628.75;10524200;28;20127;-73
2023/07/04 22:52:08;;;;;;;13.35;8.30;;;;;;;20.07;39.81;97625.91;10524190;28;20554;-75
2023/07/04 22:57:29;;;;;;;13.60;9.02;;;;;;;20.08;40.02;97624.56;10523905;28;20454;-75
2023/07/04 23:02:51;;;;;;;12.77;8.70;;;;;;;19.95;40.04;97629.13;10537767;28;20148;-75
2023/07/04 23:08:12;;;;;;;13.75;8.43;;;;;;;19.92;40.25;97618.41;10523607;28;20047;-74
2023/07/04 23:13:33;;;;;;;14.18;8.73;;;;;;;19.85;40.56;97611.13;10523557;28;20139;-72
2023/07/04 23:18:53;;;;;;;13.73;8.73;;;;;;;19.79;40.62;97616.63;10523433;28;20123;-75
2023/07/04 23:24:14;;;;;;;14.35;9.07;;;;;;;19.72;40.83;97595.88;10532690;28;20123;-75
2023/07/04 23:29:35;;;;;;;13.52;9.40;;;;;;;19.65;41.06;97597.81;10530627;28;20513;-75
2023/07/04 23:34:56;;;;;;;15.30;10.13;;;;;;;19.60;41.23;97587.75;10516585;28;20040;-75
2023/07/04 23:40:17;;;;;;;13.68;9.30;;;;;;;19.54;41.15;97579.06;10529984;28;20068;-75
2023/07/04 23:45:37;;;;;;;16.63;10.43;;;;;;;19.47;41.61;97580.25;10529866;28;20068;-73
2023/07/04 23:50:58;;;;;;;15.73;10.52;;;;;;;19.34;41.62;97576.34;10529759;28;20115;-75
2023/07/04 23:56:21;;;;;;;17.17;10.65;;;;;;;19.09;42.03;97574.13;10501848;28;20048;-75
